Time;durP1;ratioP1;P1;durP2;ratioP2;P2;SDS_P1;SDS_P2;PMS_P1;PMS_P2;Temp;Humidity;BMP_temperature;BMP_pressure;BME280_temperature;BME280_humidity;BME280_pressure;Samples;Min_cycle;Max_cycle;Signal;HPM_P1;HPM_P2
2022/03/18 00:01:43;;;;;;;0.10;0.10;;;;;;;;;;5080128;28;20489;-75
2022/03/18 00:04:09;;;;;;;0.28;0.28;;;;;;;;;;5080714;28;20032;-75
2022/03/18 00:06:35;;;;;;;0.63;0.45;;;;;;;;;;5078478;28;20863;-75
2022/03/18 00:09:01;;;;;;;11.40;0.45;;;;;;;;;;5067735;28;20033;-75
2022/03/18 00:11:27;;;;;;;0.10;0.10;;;;;;;;;;5069774;28;20024;-75
2022/03/18 00:13:53;;;;;;;1.65;0.80;;;;;;;;;;5066176;28;20409;-75
2022/03/18 00:16:20;;;;;;;0.60;0.60;;;;;;;;;;5080105;28;20107;-75
2022/03/18 00:18:45;;;;;;;0.40;0.40;;;;;;;;;;5075570;28;20405;-75
2022/03/18 00:21:12;;;;;;;0.80;0.80;;;;;;;;;;5073926;28;20032;-75
2022/03/18 00:23:38;;;;;;;0.10;0.10;;;;;;;;;;5068334;28;20020;-75
2022/03/18 00:26:04;;;;;;;0.20;0.20;;;;;;;;;;5069889;28;20340;-75
2022/03/18 00:28:30;;;;;;;0.38;0.38;;;;;;;;;;5066835;28;20028;-75
2022/03/18 00:30:57;;;;;;;0.10;0.10;;;;;;;;;;5072847;28;20047;-75
2022/03/18 00:33:23;;;;;;;0.40;0.40;;;;;;;;;;5078338;28;20020;-75
2022/03/18 00:35:49;;;;;;;0.10;0.10;;;;;;;;;;5073026;28;20077;-75
2022/03/18 00:38:14;;;;;;;0.25;0.25;;;;;;;;;;5072405;28;20395;-75
2022/03/18 00:40:41;;;;;;;0.43;0.43;;;;;;;;;;5065013;28;20033;-75
2022/03/18 00:43:07;;;;;;;0.75;0.73;;;;;;;;;;5076505;28;20383;-75
2022/03/18 00:45:33;;;;;;;0.10;0.10;;;;;;;;;;5080010;28;20036;-75
2022/03/18 00:53:29;;;;;;;2.00;1.45;;;;;;;;;;5073881;28;20038;-73
2022/03/18 00:56:33;;;;;;;1.00;0.38;;;;;;;;;;5073462;28;20017;-73
2022/03/18 00:58:59;;;;;;;0.32;0.32;;;;;;;;;;5070349;28;20032;-70
2022/03/18 01:01:26;;;;;;;0.10;0.10;;;;;;;;;;5075281;28;20625;-69
2022/03/18 01:03:52;;;;;;;0.60;0.60;;;;;;;;;;5077050;28;20052;-70
2022/03/18 01:06:18;;;;;;;0.85;0.85;;;;;;;;;;5071696;28;20079;-69
2022/03/18 01:08:44;;;;;;;1.30;1.08;;;;;;;;;;5075787;28;20096;-69
2022/03/18 01:11:10;;;;;;;0.50;0.50;;;;;;;;;;5083006;28;20039;-69
2022/03/18 01:13:36;;;;;;;0.00;0.00;;;;;;;;;;5074668;28;20051;-69
2022/03/18 01:16:02;;;;;;;0.40;0.40;;;;;;;;;;5068319;28;20077;-69
2022/03/18 01:18:28;;;;;;;0.50;0.50;;;;;;;;;;5076689;28;20024;-69
2022/03/18 01:20:53;;;;;;;0.10;0.10;;;;;;;;;;5070902;28;20424;-71
2022/03/18 01:23:19;;;;;;;0.60;0.60;;;;;;;;;;5070997;28;20020;-73
2022/03/18 01:25:45;;;;;;;0.52;0.52;;;;;;;;;;5072011;28;20772;-72
2022/03/18 01:28:11;;;;;;;0.25;0.25;;;;;;;;;;5075629;28;20042;-73
2022/03/18 01:30:37;;;;;;;0.30;0.30;;;;;;;;;;5071113;28;20046;-72
2022/03/18 01:33:03;;;;;;;0.10;0.10;;;;;;;;;;5075854;28;20112;-73
2022/03/18 01:35:29;;;;;;;0.15;0.15;;;;;;;;;;5076672;28;20440;-73
2022/03/18 01:37:55;;;;;;;0.35;0.20;;;;;;;;;;5067072;28;20377;-72
2022/03/18 01:40:22;;;;;;;0.38;0.38;;;;;;;;;;5075069;28;20079;-72
2022/03/18 01:42:47;;;;;;;3.10;1.65;;;;;;;;;;5071727;28;20102;-72
2022/03/18 01:45:14;;;;;;;0.05;0.05;;;;;;;;;;5072334;28;20027;-72
2022/03/18 01:47:43;;;;;;;0.30;0.30;;;;;;;;;;5070157;28;20035;-72
2022/03/18 01:50:10;;;;;;;0.43;0.43;;;;;;;;;;5076189;28;20032;-71
2022/03/18 01:52:37;;;;;;;0.00;0.00;;;;;;;;;;5072053;28;20433;-73
2022/03/18 01:55:03;;;;;;;0.00;0.00;;;;;;;;;;5080528;28;20379;-72
2022/03/18 01:57:29;;;;;;;0.32;0.32;;;;;;;;;;5071513;28;20033;-72
2022/03/18 01:59:55;;;;;;;0.10;0.10;;;;;;;;;;5077329;28;20081;-72
2022/03/18 02:02:21;;;;;;;5.47;0.73;;;;;;;;;;5081495;28;20031;-72
2022/03/18 02:04:48;;;;;;;0.00;0.00;;;;;;;;;;5077499;28;20028;-72
2022/03/18 02:07:14;;;;;;;0.20;0.20;;;;;;;;;;5076493;28;20055;-72
2022/03/18 02:09:40;;;;;;;0.47;0.47;;;;;;;;;;5080237;28;20031;-72
2022/03/18 02:12:07;;;;;;;0.85;0.85;;;;;;;;;;5076845;28;20040;-71
2022/03/18 02:14:34;;;;;;;0.20;0.20;;;;;;;;;;5075243;28;20170;-72
2022/03/18 02:17:02;;;;;;;1.52;0.60;;;;;;;;;;5086526;28;20016;-72
2022/03/18 02:19:28;;;;;;;6.75;1.85;;;;;;;;;;5073150;28;20064;-72
2022/03/18 02:21:54;;;;;;;0.10;0.10;;;;;;;;;;5073294;28;20028;-72
2022/03/18 02:24:21;;;;;;;0.22;0.22;;;;;;;;;;5074420;28;20719;-72
2022/03/18 02:26:51;;;;;;;0.30;0.30;;;;;;;;;;5072830;28;20025;-72
2022/03/18 02:29:18;;;;;;;1.75;0.82;;;;;;;;;;5076550;28;20087;-71
2022/03/18 02:31:44;;;;;;;0.10;0.10;;;;;;;;;;5072234;28;20043;-71
2022/03/18 02:34:10;;;;;;;0.75;0.75;;;;;;;;;;5065504;28;20032;-72
2022/03/18 02:36:36;;;;;;;1.02;0.50;;;;;;;;;;5077731;28;20117;-72
2022/03/18 02:39:03;;;;;;;0.10;0.10;;;;;;;;;;5082929;28;20048;-72
2022/03/18 02:41:29;;;;;;;0.00;0.00;;;;;;;;;;5078151;28;20078;-71
2022/03/18 02:43:55;;;;;;;0.73;0.70;;;;;;;;;;5076979;28;20024;-72
2022/03/18 02:46:21;;;;;;;0.00;0.00;;;;;;;;;;5077243;28;20031;-72
2022/03/18 02:48:47;;;;;;;0.10;0.10;;;;;;;;;;5079490;28;20051;-72
2022/03/18 02:51:14;;;;;;;0.93;0.85;;;;;;;;;;5079089;28;20047;-72
2022/03/18 02:53:40;;;;;;;0.00;0.00;;;;;;;;;;5077253;28;20051;-72
2022/03/18 02:56:07;;;;;;;1.05;0.50;;;;;;;;;;5067681;28;20265;-72
2022/03/18 02:58:35;;;;;;;2.05;1.75;;;;;;;;;;5075637;28;20100;-71
2022/03/18 03:01:00;;;;;;;0.40;0.40;;;;;;;;;;5081352;28;20230;-71
2022/03/18 03:03:26;;;;;;;0.20;0.20;;;;;;;;;;5076912;28;20514;-72
2022/03/18 03:08:37;;;;;;;0.08;0.08;;;;;;;;;;5070040;28;20118;-72
2022/03/18 03:11:03;;;;;;;0.00;0.00;;;;;;;;;;5080658;28;20131;-72
2022/03/18 03:13:29;;;;;;;0.93;0.47;;;;;;;;;;5068162;28;20032;-71
2022/03/18 03:15:56;;;;;;;0.10;0.10;;;;;;;;;;5082788;28;20269;-72
2022/03/18 03:18:22;;;;;;;3.40;0.50;;;;;;;;;;5072639;28;20039;-72
2022/03/18 03:20:48;;;;;;;0.13;0.13;;;;;;;;;;5076783;28;20028;-72
2022/03/18 03:23:15;;;;;;;7.88;1.85;;;;;;;;;;5066362;28;20417;-71
2022/03/18 03:25:41;;;;;;;0.10;0.10;;;;;;;;;;5074119;28;20024;-72
2022/03/18 03:28:07;;;;;;;0.50;0.45;;;;;;;;;;5069306;28;20039;-71
2022/03/18 03:30:33;;;;;;;1.20;1.13;;;;;;;;;;5072921;28;20052;-71
2022/03/18 03:32:59;;;;;;;0.57;0.57;;;;;;;;;;5080737;28;20016;-72
2022/03/18 03:35:25;;;;;;;0.00;0.00;;;;;;;;;;5070350;28;20035;-71
2022/03/18 03:37:51;;;;;;;0.10;0.10;;;;;;;;;;5076567;28;20441;-72
2022/03/18 03:40:18;;;;;;;0.20;0.20;;;;;;;;;;5073943;28;20115;-73
2022/03/18 03:42:45;;;;;;;0.35;0.35;;;;;;;;;;5073840;28;20031;-72
2022/03/18 03:45:11;;;;;;;0.00;0.00;;;;;;;;;;5082665;28;20042;-73
2022/03/18 03:47:38;;;;;;;0.90;0.80;;;;;;;;;;5073866;28;20039;-72
2022/03/18 03:50:04;;;;;;;0.13;0.13;;;;;;;;;;5070890;28;20024;-72
2022/03/18 03:52:30;;;;;;;0.10;0.10;;;;;;;;;;5079431;28;20042;-71
2022/03/18 03:54:57;;;;;;;0.00;0.00;;;;;;;;;;5073970;28;20462;-72
2022/03/18 03:57:22;;;;;;;0.03;0.03;;;;;;;;;;5076746;28;20016;-72
2022/03/18 03:59:48;;;;;;;0.00;0.00;;;;;;;;;;5078090;28;20027;-72
2022/03/18 04:02:14;;;;;;;0.10;0.10;;;;;;;;;;5069977;28;20103;-72
2022/03/18 04:04:40;;;;;;;0.05;0.05;;;;;;;;;;5080129;28;20040;-71
2022/03/18 04:07:08;;;;;;;3.03;1.02;;;;;;;;;;5085073;28;20518;-72
2022/03/18 04:09:33;;;;;;;0.10;0.10;;;;;;;;;;5073431;28;20028;-72
2022/03/18 04:11:59;;;;;;;0.10;0.10;;;;;;;;;;5074286;28;20027;-72
2022/03/18 04:14:25;;;;;;;0.00;0.00;;;;;;;;;;5067376;28;20039;-72
2022/03/18 04:16:52;;;;;;;7.20;1.08;;;;;;;;;;5077359;28;20037;-72
2022/03/18 04:19:18;;;;;;;0.10;0.10;;;;;;;;;;5076763;28;20495;-72
2022/03/18 04:21:44;;;;;;;0.20;0.20;;;;;;;;;;5067373;28;20032;-72
2022/03/18 04:24:10;;;;;;;0.00;0.00;;;;;;;;;;5068531;28;20028;-72
2022/03/18 04:26:36;;;;;;;0.05;0.05;;;;;;;;;;5069771;28;20155;-72
2022/03/18 04:29:02;;;;;;;0.00;0.00;;;;;;;;;;5079966;28;20021;-72
2022/03/18 04:31:28;;;;;;;0.10;0.10;;;;;;;;;;5070309;28;20024;-72
2022/03/18 04:33:54;;;;;;;0.00;0.00;;;;;;;;;;5069431;28;20083;-72
2022/03/18 04:36:20;;;;;;;0.15;0.15;;;;;;;;;;5071947;28;20081;-72
2022/03/18 04:38:48;;;;;;;0.15;0.15;;;;;;;;;;5074303;28;20103;-71
2022/03/18 04:41:14;;;;;;;2.28;1.17;;;;;;;;;;5078837;28;20024;-71
2022/03/18 04:43:40;;;;;;;0.63;0.63;;;;;;;;;;5071855;28;20020;-72
2022/03/18 04:46:06;;;;;;;1.20;0.60;;;;;;;;;;5072464;28;20421;-72
2022/03/18 04:48:32;;;;;;;1.95;1.38;;;;;;;;;;5081088;28;20104;-72
2022/03/18 04:50:58;;;;;;;0.00;0.00;;;;;;;;;;5071117;28;20104;-71
2022/03/18 04:53:24;;;;;;;0.10;0.10;;;;;;;;;;5073778;28;20494;-72
2022/03/18 04:55:50;;;;;;;0.20;0.20;;;;;;;;;;5068551;28;20038;-73
2022/03/18 04:58:16;;;;;;;5.40;0.32;;;;;;;;;;5064471;28;20024;-72
2022/03/18 05:00:42;;;;;;;2.53;1.63;;;;;;;;;;5069272;28;20442;-72
2022/03/18 05:03:10;;;;;;;0.13;0.10;;;;;;;;;;5075920;28;20033;-72
2022/03/18 05:05:37;;;;;;;0.80;0.80;;;;;;;;;;5078896;28;20024;-72
2022/03/18 05:08:03;;;;;;;13.05;0.80;;;;;;;;;;5072732;28;20046;-71
2022/03/18 05:10:29;;;;;;;0.10;0.10;;;;;;;;;;5070391;28;20028;-72
2022/03/18 05:12:55;;;;;;;0.25;0.25;;;;;;;;;;5073351;28;20032;-72
2022/03/18 05:15:21;;;;;;;1.75;1.55;;;;;;;;;;5071744;28;20024;-71
2022/03/18 05:17:51;;;;;;;0.10;0.10;;;;;;;;;;5075476;28;20382;-72
2022/03/18 05:20:18;;;;;;;0.00;0.00;;;;;;;;;;5069402;28;20028;-72
2022/03/18 05:22:45;;;;;;;21.45;0.63;;;;;;;;;;5073451;28;20091;-71
2022/03/18 05:25:11;;;;;;;0.03;0.03;;;;;;;;;;5072793;28;20027;-71
2022/03/18 05:27:41;;;;;;;1.02;0.85;;;;;;;;;;5075878;28;20471;-72
2022/03/18 05:30:09;;;;;;;0.73;0.73;;;;;;;;;;5080993;28;20040;-72
2022/03/18 05:32:35;;;;;;;0.20;0.20;;;;;;;;;;5075858;28;20040;-72
2022/03/18 05:35:01;;;;;;;0.47;0.47;;;;;;;;;;5078466;28;20827;-72
2022/03/18 05:37:26;;;;;;;0.82;0.57;;;;;;;;;;5072823;28;20035;-72
2022/03/18 05:39:52;;;;;;;0.10;0.10;;;;;;;;;;5071801;28;20073;-72
2022/03/18 05:42:18;;;;;;;1.95;0.55;;;;;;;;;;5082924;28;20032;-73
2022/03/18 05:44:44;;;;;;;0.35;0.17;;;;;;;;;;5076299;28;20017;-73
2022/03/18 05:47:10;;;;;;;2.13;1.25;;;;;;;;;;5079115;28;20032;-73
2022/03/18 05:49:36;;;;;;;0.13;0.13;;;;;;;;;;5073355;28;20029;-73
2022/03/18 05:52:02;;;;;;;1.75;0.63;;;;;;;;;;5073867;28;20111;-73
2022/03/18 05:54:28;;;;;;;10.30;1.38;;;;;;;;;;5074417;28;20032;-73
2022/03/18 05:56:54;;;;;;;0.10;0.10;;;;;;;;;;5074696;28;20029;-73
2022/03/18 05:59:21;;;;;;;0.20;0.20;;;;;;;;;;5072408;28;20040;-73
2022/03/18 06:01:47;;;;;;;0.45;0.45;;;;;;;;;;5077371;28;20032;-72
2022/03/18 06:04:14;;;;;;;3.15;2.65;;;;;;;;;;5073347;28;20032;-73
2022/03/18 06:06:40;;;;;;;2.38;1.75;;;;;;;;;;5076625;28;20074;-72
2022/03/18 06:11:51;;;;;;;6.97;5.03;;;;;;;;;;5076361;28;20039;-73
2022/03/18 06:14:18;;;;;;;4.20;1.88;;;;;;;;;;5074418;28;20024;-73
2022/03/18 06:16:48;;;;;;;0.40;0.40;;;;;;;;;;5076056;28;20020;-73
2022/03/18 06:19:17;;;;;;;0.13;0.13;;;;;;;;;;5068985;28;20672;-73
2022/03/18 06:21:44;;;;;;;0.98;0.88;;;;;;;;;;5072496;28;20028;-73
2022/03/18 06:24:10;;;;;;;0.10;0.10;;;;;;;;;;5071361;28;20475;-73
2022/03/18 06:26:36;;;;;;;1.38;1.00;;;;;;;;;;5080524;28;20032;-73
2022/03/18 06:29:03;;;;;;;3.45;1.90;;;;;;;;;;5074765;28;20535;-73
2022/03/18 06:31:29;;;;;;;0.13;0.13;;;;;;;;;;5083114;28;20097;-73
2022/03/18 06:33:55;;;;;;;0.30;0.30;;;;;;;;;;5074445;28;20051;-72
2022/03/18 06:36:20;;;;;;;0.00;0.00;;;;;;;;;;5071802;28;20040;-72
2022/03/18 06:38:46;;;;;;;1.45;1.20;;;;;;;;;;5073768;28;20038;-72
2022/03/18 06:41:12;;;;;;;1.08;0.60;;;;;;;;;;5071154;28;20028;-70
2022/03/18 06:43:38;;;;;;;0.03;0.03;;;;;;;;;;5073413;28;20371;-70
2022/03/18 06:46:04;;;;;;;0.00;0.00;;;;;;;;;;5081430;28;20039;-69
2022/03/18 06:48:30;;;;;;;0.30;0.30;;;;;;;;;;5077273;28;20024;-73
2022/03/18 06:50:56;;;;;;;0.38;0.22;;;;;;;;;;5074048;28;20024;-71
2022/03/18 06:53:22;;;;;;;0.03;0.03;;;;;;;;;;5073209;28;20032;-73
2022/03/18 06:55:48;;;;;;;0.10;0.10;;;;;;;;;;5074277;28;20580;-71
2022/03/18 06:58:14;;;;;;;1.45;0.65;;;;;;;;;;5071293;28;20028;-72
2022/03/18 07:00:39;;;;;;;0.25;0.25;;;;;;;;;;5071488;28;20107;-71
2022/03/18 07:03:06;;;;;;;12.52;1.55;;;;;;;;;;5075665;28;20032;-71
2022/03/18 07:05:32;;;;;;;0.20;0.20;;;;;;;;;;5074528;28;20036;-71
2022/03/18 07:07:58;;;;;;;0.00;0.00;;;;;;;;;;5072974;28;20502;-72
2022/03/18 07:10:24;;;;;;;0.63;0.63;;;;;;;;;;5075729;28;20035;-71
2022/03/18 07:12:50;;;;;;;0.00;0.00;;;;;;;;;;5073334;28;20028;-72
2022/03/18 07:15:16;;;;;;;10.40;1.45;;;;;;;;;;5076246;28;20031;-71
2022/03/18 07:17:55;;;;;;;0.10;0.10;;;;;;;;;;5070964;28;20374;-71
2022/03/18 07:20:23;;;;;;;0.47;0.40;;;;;;;;;;5067971;28;20060;-71
2022/03/18 07:22:58;;;;;;;0.15;0.15;;;;;;;;;;5068096;28;20038;-71
2022/03/18 07:25:24;;;;;;;0.00;0.00;;;;;;;;;;5069120;28;20028;-72
2022/03/18 07:27:50;;;;;;;1.30;1.20;;;;;;;;;;5066371;28;20025;-72
2022/03/18 07:30:16;;;;;;;5.05;2.05;;;;;;;;;;5076072;28;20044;-71
2022/03/18 07:32:42;;;;;;;0.85;0.43;;;;;;;;;;5076971;28;20076;-73
2022/03/18 07:35:10;;;;;;;1.17;0.95;;;;;;;;;;5066701;28;20036;-74
2022/03/18 07:37:36;;;;;;;0.32;0.32;;;;;;;;;;5072724;28;20036;-73
2022/03/18 07:40:02;;;;;;;0.00;0.00;;;;;;;;;;5071515;28;20407;-73
2022/03/18 07:42:28;;;;;;;7.97;1.65;;;;;;;;;;5075488;28;20028;-73
2022/03/18 07:44:54;;;;;;;0.30;0.30;;;;;;;;;;5067167;28;20035;-73
2022/03/18 07:47:19;;;;;;;3.08;1.13;;;;;;;;;;5064394;28;20066;-73
2022/03/18 07:49:45;;;;;;;0.22;0.22;;;;;;;;;;5071174;28;20055;-74
2022/03/18 07:52:11;;;;;;;1.30;0.82;;;;;;;;;;5075872;28;20389;-74
2022/03/18 07:54:39;;;;;;;0.10;0.10;;;;;;;;;;5067737;28;20024;-74
2022/03/18 07:57:04;;;;;;;1.00;0.77;;;;;;;;;;5065976;28;20032;-73
2022/03/18 07:59:30;;;;;;;0.00;0.00;;;;;;;;;;5074186;28;20533;-73
2022/03/18 08:01:56;;;;;;;0.10;0.10;;;;;;;;;;5076603;28;20016;-74
2022/03/18 08:04:22;;;;;;;0.00;0.00;;;;;;;;;;5066100;28;20051;-74
2022/03/18 08:06:48;;;;;;;0.00;0.00;;;;;;;;;;5075641;28;20139;-74
2022/03/18 08:09:14;;;;;;;0.43;0.35;;;;;;;;;;5076376;28;20042;-73
2022/03/18 08:11:40;;;;;;;0.20;0.20;;;;;;;;;;5073348;28;20024;-74
2022/03/18 08:14:07;;;;;;;0.55;0.55;;;;;;;;;;5077051;28;20155;-74
2022/03/18 08:16:32;;;;;;;0.28;0.28;;;;;;;;;;5075601;28;20402;-74
2022/03/18 08:18:58;;;;;;;0.65;0.65;;;;;;;;;;5077099;28;20031;-73
2022/03/18 08:21:25;;;;;;;0.15;0.15;;;;;;;;;;5077537;28;20119;-73
2022/03/18 08:24:04;;;;;;;0.00;0.00;;;;;;;;;;5081658;28;20522;-75
2022/03/18 08:26:30;;;;;;;0.25;0.25;;;;;;;;;;5076692;28;20055;-73
2022/03/18 08:28:57;;;;;;;3.03;1.48;;;;;;;;;;5074506;28;20042;-73
2022/03/18 08:31:23;;;;;;;0.10;0.10;;;;;;;;;;5072724;28;20028;-73
2022/03/18 08:33:49;;;;;;;0.00;0.00;;;;;;;;;;5074202;28;20020;-73
2022/03/18 08:36:15;;;;;;;0.15;0.15;;;;;;;;;;5073078;28;20043;-73
2022/03/18 08:38:41;;;;;;;0.10;0.10;;;;;;;;;;5074808;28;20043;-73
2022/03/18 08:41:07;;;;;;;0.30;0.30;;;;;;;;;;5072772;28;21182;-73
2022/03/18 08:43:32;;;;;;;0.00;0.00;;;;;;;;;;5071574;28;20032;-73
2022/03/18 08:45:58;;;;;;;0.10;0.10;;;;;;;;;;5079908;28;20068;-73
2022/03/18 08:48:24;;;;;;;14.18;0.70;;;;;;;;;;5068407;28;20028;-73
2022/03/18 08:50:51;;;;;;;0.38;0.20;;;;;;;;;;5067184;28;20036;-72
2022/03/18 08:53:17;;;;;;;0.10;0.10;;;;;;;;;;5068858;28;20032;-72
2022/03/18 08:55:43;;;;;;;0.05;0.05;;;;;;;;;;5071216;28;20027;-71
2022/03/18 08:58:09;;;;;;;0.03;0.03;;;;;;;;;;5072981;28;20453;-72
2022/03/18 09:00:35;;;;;;;0.38;0.25;;;;;;;;;;5076221;28;20456;-72
2022/03/18 09:03:01;;;;;;;0.50;0.50;;;;;;;;;;5075985;28;20017;-72
2022/03/18 09:05:27;;;;;;;0.17;0.17;;;;;;;;;;5073392;28;20039;-76
2022/03/18 09:07:53;;;;;;;0.47;0.47;;;;;;;;;;5071566;28;20052;-72
2022/03/18 09:10:19;;;;;;;0.10;0.10;;;;;;;;;;5067461;28;20053;-73
2022/03/18 09:12:46;;;;;;;0.00;0.00;;;;;;;;;;5075215;28;20024;-72
2022/03/18 09:15:12;;;;;;;0.10;0.10;;;;;;;;;;5071000;28;20031;-73
2022/03/18 09:17:38;;;;;;;4.50;0.75;;;;;;;;;;5077093;28;20016;-73
2022/03/18 09:20:06;;;;;;;1.02;0.30;;;;;;;;;;5077736;28;20032;-73
2022/03/18 09:22:32;;;;;;;0.17;0.17;;;;;;;;;;5078061;28;20020;-70
2022/03/18 09:24:57;;;;;;;4.28;1.17;;;;;;;;;;5078788;28;20027;-71
2022/03/18 09:27:23;;;;;;;0.08;0.08;;;;;;;;;;5078289;28;20031;-70
2022/03/18 09:29:49;;;;;;;0.80;0.80;;;;;;;;;;5082796;28;20133;-70
2022/03/18 09:32:15;;;;;;;0.30;0.30;;;;;;;;;;5084916;28;20388;-71
2022/03/18 09:34:42;;;;;;;2.08;0.68;;;;;;;;;;5079447;28;20364;-70
2022/03/18 09:37:08;;;;;;;0.30;0.30;;;;;;;;;;5080011;28;20115;-70
2022/03/18 09:39:34;;;;;;;6.93;0.57;;;;;;;;;;5078999;28;20155;-70
2022/03/18 09:42:00;;;;;;;0.38;0.38;;;;;;;;;;5082006;28;20596;-70
2022/03/18 09:44:32;;;;;;;0.10;0.10;;;;;;;;;;5080926;28;20115;-71
2022/03/18 09:46:58;;;;;;;0.20;0.20;;;;;;;;;;5082601;28;20028;-71
2022/03/18 09:49:24;;;;;;;0.10;0.10;;;;;;;;;;5072579;28;20036;-69
2022/03/18 09:51:50;;;;;;;0.43;0.43;;;;;;;;;;5078948;28;20032;-69
2022/03/18 09:54:17;;;;;;;1.90;1.70;;;;;;;;;;5081388;28;20047;-70
2022/03/18 09:56:44;;;;;;;0.10;0.10;;;;;;;;;;5086980;28;20532;-69
2022/03/18 09:59:10;;;;;;;12.85;0.63;;;;;;;;;;5080809;28;20032;-69
2022/03/18 10:01:36;;;;;;;1.45;1.17;;;;;;;;;;5080883;28;20044;-69
2022/03/18 10:04:03;;;;;;;0.08;0.08;;;;;;;;;;5079559;28;20070;-71
2022/03/18 10:06:31;;;;;;;0.10;0.10;;;;;;;;;;5079406;28;20044;-70
2022/03/18 10:08:59;;;;;;;2.40;1.15;;;;;;;;;;5074428;28;20036;-69
2022/03/18 10:11:27;;;;;;;0.00;0.00;;;;;;;;;;5078039;28;20023;-70
2022/03/18 10:13:54;;;;;;;2.65;0.52;;;;;;;;;;5082338;28;20028;-70
2022/03/18 10:16:33;;;;;;;1.05;0.70;;;;;;;;;;5074091;28;20143;-71
2022/03/18 10:18:59;;;;;;;0.00;0.00;;;;;;;;;;5081605;28;20017;-71
2022/03/18 10:21:25;;;;;;;0.68;0.55;;;;;;;;;;5079583;28;20020;-70
2022/03/18 10:24:03;;;;;;;0.10;0.10;;;;;;;;;;5080130;28;20107;-70
2022/03/18 10:26:29;;;;;;;0.20;0.20;;;;;;;;;;5080993;28;20089;-70
2022/03/18 10:29:00;;;;;;;0.75;0.75;;;;;;;;;;5083353;28;20016;-70
2022/03/18 10:31:27;;;;;;;0.10;0.10;;;;;;;;;;5081824;28;20032;-70
2022/03/18 10:37:21;;;;;;;0.28;0.28;;;;;;;;;;5080867;28;20032;-70
2022/03/18 10:39:29;;;;;;;1.00;0.40;;;;;;;;;;5076791;28;20479;-71
2022/03/18 10:41:55;;;;;;;0.47;0.38;;;;;;;;;;5080001;28;20040;-72
2022/03/18 10:44:24;;;;;;;1.00;0.73;;;;;;;;;;5076445;28;20697;-71
2022/03/18 10:46:53;;;;;;;0.50;0.40;;;;;;;;;;5069600;28;20024;-72
2022/03/18 10:49:23;;;;;;;0.65;0.65;;;;;;;;;;5066840;28;20036;-72
2022/03/18 10:51:49;;;;;;;2.47;0.77;;;;;;;;;;5076111;28;20534;-72
2022/03/18 10:54:23;;;;;;;0.20;0.20;;;;;;;;;;5080161;28;20118;-72
2022/03/18 10:56:53;;;;;;;0.35;0.28;;;;;;;;;;5071972;28;20032;-71
2022/03/18 10:59:20;;;;;;;3.45;1.65;;;;;;;;;;5082460;28;20055;-75
2022/03/18 11:01:47;;;;;;;0.80;0.47;;;;;;;;;;5067469;28;20501;-76
2022/03/18 11:04:16;;;;;;;0.25;0.25;;;;;;;;;;5066792;28;20028;-76
2022/03/18 11:06:43;;;;;;;0.03;0.03;;;;;;;;;;5080147;28;20040;-75
2022/03/18 11:09:11;;;;;;;0.20;0.20;;;;;;;;;;5079497;28;20032;-76
2022/03/18 11:11:41;;;;;;;0.75;0.52;;;;;;;;;;5086541;28;20087;-75
2022/03/18 11:14:09;;;;;;;0.20;0.20;;;;;;;;;;5082328;28;20027;-77
2022/03/18 11:16:38;;;;;;;0.25;0.25;;;;;;;;;;5078100;28;20501;-75
2022/03/18 11:19:08;;;;;;;0.20;0.20;;;;;;;;;;5069472;28;20021;-77
2022/03/18 11:21:40;;;;;;;0.50;0.50;;;;;;;;;;5079243;28;20203;-78
2022/03/18 11:24:11;;;;;;;0.50;0.50;;;;;;;;;;5082246;28;20081;-74
2022/03/18 11:26:38;;;;;;;0.10;0.10;;;;;;;;;;5077628;28;20024;-74
2022/03/18 11:29:07;;;;;;;0.50;0.25;;;;;;;;;;5081858;28;20336;-74
2022/03/18 11:31:33;;;;;;;0.00;0.00;;;;;;;;;;5076455;28;20025;-74
2022/03/18 11:34:12;;;;;;;0.10;0.10;;;;;;;;;;5078155;28;20119;-73
2022/03/18 11:36:44;;;;;;;0.93;0.88;;;;;;;;;;5077172;28;20024;-74
2022/03/18 11:39:10;;;;;;;0.60;0.32;;;;;;;;;;5069508;28;20036;-74
2022/03/18 11:41:47;;;;;;;0.88;0.75;;;;;;;;;;5083608;28;20060;-75
2022/03/18 11:44:32;;;;;;;0.75;0.40;;;;;;;;;;5079200;28;20587;-74
2022/03/18 11:47:18;;;;;;;6.43;2.17;;;;;;;;;;5080075;28;20028;-75
2022/03/18 11:49:44;;;;;;;0.00;0.00;;;;;;;;;;5075173;28;20032;-75
2022/03/18 11:52:10;;;;;;;0.50;0.43;;;;;;;;;;5071284;28;20039;-75
2022/03/18 11:54:49;;;;;;;0.10;0.10;;;;;;;;;;5078176;28;20114;-73
2022/03/18 11:57:35;;;;;;;0.22;0.20;;;;;;;;;;5076296;28;20154;-73
2022/03/18 12:00:05;;;;;;;8.05;1.40;;;;;;;;;;5079614;28;20024;-74
2022/03/18 12:02:32;;;;;;;6.50;1.23;;;;;;;;;;5081799;28;20399;-74
2022/03/18 12:04:59;;;;;;;0.55;0.52;;;;;;;;;;5074267;28;20262;-73
2022/03/18 12:07:28;;;;;;;2.42;0.75;;;;;;;;;;5089487;28;20040;-74
2022/03/18 12:09:56;;;;;;;0.30;0.30;;;;;;;;;;5091276;28;20053;-74
2022/03/18 12:12:25;;;;;;;0.17;0.17;;;;;;;;;;5092453;28;20593;-73
2022/03/18 12:14:53;;;;;;;0.80;0.32;;;;;;;;;;5070728;28;20763;-73
2022/03/18 12:17:20;;;;;;;0.65;0.65;;;;;;;;;;5072450;28;20020;-74
2022/03/18 12:19:53;;;;;;;0.10;0.10;;;;;;;;;;5072181;28;20025;-77
2022/03/18 12:22:20;;;;;;;2.35;1.33;;;;;;;;;;5068170;28;20028;-74
2022/03/18 12:24:48;;;;;;;0.22;0.22;;;;;;;;;;5070013;28;20107;-74
2022/03/18 12:27:16;;;;;;;0.00;0.00;;;;;;;;;;5070130;28;20028;-73
2022/03/18 12:29:42;;;;;;;0.00;0.00;;;;;;;;;;5080446;28;20050;-75
2022/03/18 12:32:09;;;;;;;0.10;0.10;;;;;;;;;;5069268;28;20032;-74
2022/03/18 12:34:36;;;;;;;1.10;0.85;;;;;;;;;;5070334;28;20033;-74
2022/03/18 12:37:03;;;;;;;0.20;0.20;;;;;;;;;;5076303;28;20456;-72
2022/03/18 12:39:29;;;;;;;0.47;0.47;;;;;;;;;;5081135;28;20119;-73
2022/03/18 12:42:10;;;;;;;0.35;0.35;;;;;;;;;;5080536;28;20103;-73
2022/03/18 12:44:37;;;;;;;0.45;0.43;;;;;;;;;;5076877;28;20108;-73
2022/03/18 12:47:05;;;;;;;4.20;0.63;;;;;;;;;;5084529;28;20043;-77
2022/03/18 12:49:38;;;;;;;0.95;0.45;;;;;;;;;;5074678;28;20070;-76
2022/03/18 12:52:08;;;;;;;13.23;0.35;;;;;;;;;;5082448;28;20117;-75
2022/03/18 12:54:34;;;;;;;0.00;0.00;;;;;;;;;;5077490;28;20035;-75
2022/03/18 12:57:02;;;;;;;0.98;0.73;;;;;;;;;;5074469;28;20029;-76
2022/03/18 12:59:28;;;;;;;3.13;0.28;;;;;;;;;;5085136;28;20080;-75
2022/03/18 13:01:55;;;;;;;0.20;0.05;;;;;;;;;;5080255;28;20027;-75
2022/03/18 13:04:22;;;;;;;1.85;0.22;;;;;;;;;;5085822;28;20618;-73
2022/03/18 13:06:57;;;;;;;0.43;0.28;;;;;;;;;;5071507;28;20063;-71
2022/03/18 13:09:24;;;;;;;0.08;0.08;;;;;;;;;;5078939;28;20085;-72
2022/03/18 13:11:50;;;;;;;0.25;0.25;;;;;;;;;;5072883;28;20024;-72
2022/03/18 13:14:29;;;;;;;0.25;0.10;;;;;;;;;;5079460;28;20044;-73
2022/03/18 13:16:56;;;;;;;0.25;0.25;;;;;;;;;;5071394;28;20028;-72
2022/03/18 13:19:35;;;;;;;0.00;0.00;;;;;;;;;;5078625;28;20046;-71
2022/03/18 13:22:05;;;;;;;0.10;0.10;;;;;;;;;;5080476;28;20029;-73
2022/03/18 13:24:32;;;;;;;1.55;0.93;;;;;;;;;;5079091;28;20048;-73
2022/03/18 13:26:58;;;;;;;0.20;0.20;;;;;;;;;;5075319;28;20039;-75
2022/03/18 13:32:50;;;;;;;1.17;0.90;;;;;;;;;;5071625;28;20035;-73
2022/03/18 13:35:09;;;;;;;1.30;0.47;;;;;;;;;;5081233;28;20055;-73
2022/03/18 13:37:37;;;;;;;0.32;0.15;;;;;;;;;;5075448;28;20146;-74
2022/03/18 13:40:11;;;;;;;1.30;0.85;;;;;;;;;;5074578;28;20081;-72
2022/03/18 13:42:37;;;;;;;1.10;0.68;;;;;;;;;;5074094;28;20035;-73
2022/03/18 13:45:03;;;;;;;0.13;0.13;;;;;;;;;;5067663;28;21325;-72
2022/03/18 13:47:29;;;;;;;0.17;0.17;;;;;;;;;;5077027;28;20123;-72
2022/03/18 13:49:58;;;;;;;0.15;0.15;;;;;;;;;;5077394;28;20121;-71
2022/03/18 13:52:35;;;;;;;5.15;0.73;;;;;;;;;;5078271;28;20035;-72
2022/03/18 13:55:01;;;;;;;0.03;0.03;;;;;;;;;;5084269;28;20031;-75
2022/03/18 13:57:27;;;;;;;0.00;0.00;;;;;;;;;;5081410;28;20374;-73
2022/03/18 14:00:00;;;;;;;0.10;0.10;;;;;;;;;;5089413;28;20024;-72
2022/03/18 14:02:28;;;;;;;0.00;0.00;;;;;;;;;;5090311;28;20093;-70
2022/03/18 14:04:54;;;;;;;0.20;0.20;;;;;;;;;;5082002;28;20466;-72
2022/03/18 14:07:21;;;;;;;0.00;0.00;;;;;;;;;;5087393;28;20299;-75
2022/03/18 14:09:58;;;;;;;1.25;0.65;;;;;;;;;;5083723;28;20495;-73
2022/03/18 14:12:24;;;;;;;0.30;0.30;;;;;;;;;;5084380;28;20098;-73
2022/03/18 14:15:11;;;;;;;0.55;0.55;;;;;;;;;;5087620;28;20052;-74
2022/03/18 14:17:55;;;;;;;0.10;0.10;;;;;;;;;;5079780;28;20028;-73
2022/03/18 14:20:21;;;;;;;1.17;0.35;;;;;;;;;;5077745;28;20065;-72
2022/03/18 14:22:50;;;;;;;0.00;0.00;;;;;;;;;;5084059;28;20572;-72
2022/03/18 14:25:16;;;;;;;0.45;0.45;;;;;;;;;;5078429;28;20028;-72
2022/03/18 14:27:43;;;;;;;0.60;0.55;;;;;;;;;;5085722;28;20047;-72
2022/03/18 14:30:23;;;;;;;54.70;1.13;;;;;;;;;;5084252;28;20028;-71
2022/03/18 14:32:50;;;;;;;1.60;0.32;;;;;;;;;;5086771;28;20046;-72
2022/03/18 14:35:17;;;;;;;0.20;0.20;;;;;;;;;;5080735;28;20028;-73
2022/03/18 14:37:43;;;;;;;0.20;0.20;;;;;;;;;;5081006;28;20103;-74
2022/03/18 14:40:11;;;;;;;0.20;0.20;;;;;;;;;;5080498;28;20134;-73
2022/03/18 14:42:38;;;;;;;0.00;0.00;;;;;;;;;;5085496;28;20028;-73
2022/03/18 14:45:04;;;;;;;0.00;0.00;;;;;;;;;;5084697;28;20028;-73
2022/03/18 14:47:30;;;;;;;0.63;0.25;;;;;;;;;;5078194;28;20039;-73
2022/03/18 14:49:56;;;;;;;4.90;0.88;;;;;;;;;;5076087;28;20028;-73
2022/03/18 14:52:42;;;;;;;0.50;0.50;;;;;;;;;;5079351;28;20433;-74
2022/03/18 14:57:54;;;;;;;0.50;0.50;;;;;;;;;;5086844;28;20116;-72
2022/03/18 15:00:20;;;;;;;0.00;0.00;;;;;;;;;;5071630;28;20028;-73
2022/03/18 15:02:46;;;;;;;0.32;0.32;;;;;;;;;;5072969;28;20021;-74
2022/03/18 15:05:12;;;;;;;0.00;0.00;;;;;;;;;;5081086;28;20101;-73